sensor_id;sensor_type;location;lat;lon;timestamp;P1;durP1;ratioP1;P2;durP2;ratioP2
2866;SDS011;1441;48.886;8.728;2023-05-10T00:00:07;0.40;;;0.33;;
2866;SDS011;1441;48.886;8.728;2023-05-10T00:02:34;2.70;;;0.40;;
2866;SDS011;1441;48.886;8.728;2023-05-10T00:04:59;0.40;;;0.40;;
2866;SDS011;1441;48.886;8.728;2023-05-10T00:07:26;3.30;;;0.40;;
2866;SDS011;1441;48.886;8.728;2023-05-10T00:09:51;3.77;;;0.40;;
2866;SDS011;1441;48.886;8.728;2023-05-10T00:12:17;1.30;;;0.43;;
2866;SDS011;1441;48.886;8.728;2023-05-10T00:14:42;1.47;;;0.40;;
2866;SDS011;1441;48.886;8.728;2023-05-10T00:17:08;2.10;;;1.07;;
2866;SDS011;1441;48.886;8.728;2023-05-10T00:19:34;0.40;;;0.40;;
2866;SDS011;1441;48.886;8.728;2023-05-10T00:21:59;0.40;;;0.40;;
2866;SDS011;1441;48.886;8.728;2023-05-10T00:24:25;2.30;;;0.50;;
2866;SDS011;1441;48.886;8.728;2023-05-10T00:26:50;2.30;;;0.50;;
2866;SDS011;1441;48.886;8.728;2023-05-10T00:29:16;1.07;;;0.40;;
2866;SDS011;1441;48.886;8.728;2023-05-10T00:31:41;0.87;;;0.50;;
2866;SDS011;1441;48.886;8.728;2023-05-10T00:34:07;0.60;;;0.43;;
2866;SDS011;1441;48.886;8.728;2023-05-10T00:36:32;0.50;;;0.50;;
2866;SDS011;1441;48.886;8.728;2023-05-10T00:38:58;3.47;;;1.40;;
2866;SDS011;1441;48.886;8.728;2023-05-10T00:41:24;2.90;;;0.97;;
2866;SDS011;1441;48.886;8.728;2023-05-10T00:43:50;0.50;;;0.50;;
2866;SDS011;1441;48.886;8.728;2023-05-10T00:46:15;2.10;;;0.57;;
2866;SDS011;1441;48.886;8.728;2023-05-10T00:48:41;2.00;;;0.60;;
2866;SDS011;1441;48.886;8.728;2023-05-10T00:51:08;4.17;;;0.60;;
2866;SDS011;1441;48.886;8.728;2023-05-10T00:53:34;2.00;;;0.50;;
2866;SDS011;1441;48.886;8.728;2023-05-10T00:55:59;0.60;;;0.60;;
2866;SDS011;1441;48.886;8.728;2023-05-10T00:58:26;1.27;;;0.50;;
2866;SDS011;1441;48.886;8.728;2023-05-10T01:00:54;0.60;;;0.60;;
2866;SDS011;1441;48.886;8.728;2023-05-10T01:03:21;5.23;;;0.80;;
2866;SDS011;1441;48.886;8.728;2023-05-10T01:05:47;0.60;;;0.60;;
2866;SDS011;1441;48.886;8.728;2023-05-10T01:08:13;2.83;;;0.87;;
2866;SDS011;1441;48.886;8.728;2023-05-10T01:10:39;0.60;;;0.60;;
2866;SDS011;1441;48.886;8.728;2023-05-10T01:13:05;2.00;;;0.80;;
2866;SDS011;1441;48.886;8.728;2023-05-10T01:15:31;0.60;;;0.50;;
2866;SDS011;1441;48.886;8.728;2023-05-10T01:17:57;0.53;;;0.53;;
2866;SDS011;1441;48.886;8.728;2023-05-10T01:20:23;0.83;;;0.77;;
2866;SDS011;1441;48.886;8.728;2023-05-10T01:34:21;5.57;;;1.03;;
2866;SDS011;1441;48.886;8.728;2023-05-10T01:36:55;0.80;;;0.80;;
2866;SDS011;1441;48.886;8.728;2023-05-10T01:39:32;5.10;;;0.80;;
2866;SDS011;1441;48.886;8.728;2023-05-10T01:42:10;0.77;;;0.77;;
2866;SDS011;1441;48.886;8.728;2023-05-10T01:44:49;4.83;;;0.93;;
2866;SDS011;1441;48.886;8.728;2023-05-10T01:50:08;9.87;;;1.20;;
2866;SDS011;1441;48.886;8.728;2023-05-10T01:52:44;0.70;;;0.70;;
2866;SDS011;1441;48.886;8.728;2023-05-10T01:55:16;4.50;;;0.97;;
2866;SDS011;1441;48.886;8.728;2023-05-10T01:57:45;1.80;;;0.80;;
2866;SDS011;1441;48.886;8.728;2023-05-10T02:00:13;3.80;;;0.83;;
2866;SDS011;1441;48.886;8.728;2023-05-10T02:02:40;1.20;;;1.10;;
2866;SDS011;1441;48.886;8.728;2023-05-10T02:05:09;1.10;;;1.00;;
2866;SDS011;1441;48.886;8.728;2023-05-10T02:07:38;1.00;;;1.00;;
2866;SDS011;1441;48.886;8.728;2023-05-10T02:10:05;6.63;;;1.50;;
2866;SDS011;1441;48.886;8.728;2023-05-10T02:12:35;2.70;;;1.07;;
2866;SDS011;1441;48.886;8.728;2023-05-10T02:15:04;1.60;;;1.50;;
2866;SDS011;1441;48.886;8.728;2023-05-10T02:17:32;2.03;;;1.60;;
2866;SDS011;1441;48.886;8.728;2023-05-10T02:19:59;1.37;;;1.33;;
2866;SDS011;1441;48.886;8.728;2023-05-10T02:22:27;2.07;;;1.97;;
2866;SDS011;1441;48.886;8.728;2023-05-10T02:24:57;2.90;;;2.00;;
2866;SDS011;1441;48.886;8.728;2023-05-10T02:27:25;2.80;;;2.10;;
2866;SDS011;1441;48.886;8.728;2023-05-10T02:29:52;2.60;;;1.80;;
2866;SDS011;1441;48.886;8.728;2023-05-10T02:32:19;2.23;;;2.00;;
2866;SDS011;1441;48.886;8.728;2023-05-10T02:34:47;4.93;;;2.13;;
2866;SDS011;1441;48.886;8.728;2023-05-10T02:37:17;3.07;;;2.20;;
2866;SDS011;1441;48.886;8.728;2023-05-10T02:39:48;4.20;;;2.40;;
2866;SDS011;1441;48.886;8.728;2023-05-10T02:42:16;2.70;;;2.50;;
2866;SDS011;1441;48.886;8.728;2023-05-10T02:44:48;2.70;;;2.33;;
2866;SDS011;1441;48.886;8.728;2023-05-10T02:47:16;2.80;;;2.33;;
2866;SDS011;1441;48.886;8.728;2023-05-10T02:49:42;4.40;;;2.37;;
2866;SDS011;1441;48.886;8.728;2023-05-10T02:52:08;2.60;;;2.30;;
2866;SDS011;1441;48.886;8.728;2023-05-10T02:54:39;5.93;;;2.30;;
2866;SDS011;1441;48.886;8.728;2023-05-10T02:57:11;3.83;;;2.13;;
2866;SDS011;1441;48.886;8.728;2023-05-10T02:59:40;2.50;;;2.13;;
2866;SDS011;1441;48.886;8.728;2023-05-10T03:02:08;2.43;;;2.23;;
2866;SDS011;1441;48.886;8.728;2023-05-10T03:04:34;2.57;;;2.27;;
2866;SDS011;1441;48.886;8.728;2023-05-10T03:06:59;8.30;;;2.20;;
2866;SDS011;1441;48.886;8.728;2023-05-10T03:09:25;2.40;;;2.20;;
2866;SDS011;1441;48.886;8.728;2023-05-10T03:19:57;1.10;;;1.10;;
2866;SDS011;1441;48.886;8.728;2023-05-10T03:22:31;1.90;;;1.27;;
2866;SDS011;1441;48.886;8.728;2023-05-10T03:25:04;2.77;;;1.30;;
2866;SDS011;1441;48.886;8.728;2023-05-10T03:27:31;4.20;;;1.33;;
2866;SDS011;1441;48.886;8.728;2023-05-10T03:29:58;1.40;;;1.30;;
2866;SDS011;1441;48.886;8.728;2023-05-10T03:32:26;2.83;;;1.23;;
2866;SDS011;1441;48.886;8.728;2023-05-10T03:34:55;1.13;;;1.10;;
2866;SDS011;1441;48.886;8.728;2023-05-10T03:37:20;1.93;;;1.20;;
2866;SDS011;1441;48.886;8.728;2023-05-10T03:39:46;3.13;;;1.30;;
2866;SDS011;1441;48.886;8.728;2023-05-10T03:42:11;5.93;;;1.20;;
2866;SDS011;1441;48.886;8.728;2023-05-10T03:44:38;1.40;;;1.40;;
2866;SDS011;1441;48.886;8.728;2023-05-10T03:47:04;1.20;;;1.20;;
2866;SDS011;1441;48.886;8.728;2023-05-10T03:49:30;1.10;;;1.10;;
2866;SDS011;1441;48.886;8.728;2023-05-10T03:51:55;5.03;;;1.60;;
2866;SDS011;1441;48.886;8.728;2023-05-10T03:54:21;1.60;;;1.50;;
2866;SDS011;1441;48.886;8.728;2023-05-10T03:56:46;1.30;;;1.30;;
2866;SDS011;1441;48.886;8.728;2023-05-10T03:59:13;4.67;;;1.70;;
2866;SDS011;1441;48.886;8.728;2023-05-10T04:01:38;2.00;;;1.90;;
2866;SDS011;1441;48.886;8.728;2023-05-10T04:04:04;1.90;;;1.80;;
2866;SDS011;1441;48.886;8.728;2023-05-10T04:06:29;1.57;;;1.50;;
2866;SDS011;1441;48.886;8.728;2023-05-10T04:08:55;2.60;;;1.20;;
2866;SDS011;1441;48.886;8.728;2023-05-10T04:11:24;2.20;;;1.30;;
2866;SDS011;1441;48.886;8.728;2023-05-10T04:13:50;3.13;;;1.67;;
2866;SDS011;1441;48.886;8.728;2023-05-10T04:16:16;7.50;;;2.70;;
2866;SDS011;1441;48.886;8.728;2023-05-10T04:18:41;2.83;;;2.10;;
2866;SDS011;1441;48.886;8.728;2023-05-10T04:21:13;1.60;;;1.50;;
2866;SDS011;1441;48.886;8.728;2023-05-10T04:23:39;3.33;;;1.83;;
2866;SDS011;1441;48.886;8.728;2023-05-10T04:26:05;1.40;;;1.40;;
2866;SDS011;1441;48.886;8.728;2023-05-10T04:28:31;1.70;;;1.60;;
2866;SDS011;1441;48.886;8.728;2023-05-10T04:31:00;2.10;;;2.00;;
2866;SDS011;1441;48.886;8.728;2023-05-10T04:33:30;2.30;;;2.10;;
2866;SDS011;1441;48.886;8.728;2023-05-10T04:35:55;2.13;;;1.90;;
2866;SDS011;1441;48.886;8.728;2023-05-10T04:38:21;1.60;;;1.50;;
2866;SDS011;1441;48.886;8.728;2023-05-10T04:40:47;2.83;;;1.73;;
2866;SDS011;1441;48.886;8.728;2023-05-10T04:43:12;2.00;;;1.80;;
2866;SDS011;1441;48.886;8.728;2023-05-10T04:45:38;1.80;;;1.70;;
2866;SDS011;1441;48.886;8.728;2023-05-10T04:48:03;3.90;;;1.93;;
2866;SDS011;1441;48.886;8.728;2023-05-10T04:50:30;2.93;;;1.30;;
2866;SDS011;1441;48.886;8.728;2023-05-10T04:52:56;2.10;;;1.87;;
2866;SDS011;1441;48.886;8.728;2023-05-10T04:55:22;2.07;;;1.87;;
2866;SDS011;1441;48.886;8.728;2023-05-10T04:57:48;6.90;;;1.90;;
2866;SDS011;1441;48.886;8.728;2023-05-10T05:00:13;4.63;;;2.03;;
2866;SDS011;1441;48.886;8.728;2023-05-10T05:02:42;1.70;;;1.60;;
2866;SDS011;1441;48.886;8.728;2023-05-10T05:05:10;4.43;;;2.10;;
2866;SDS011;1441;48.886;8.728;2023-05-10T05:07:36;2.50;;;1.80;;
2866;SDS011;1441;48.886;8.728;2023-05-10T05:10:03;2.10;;;2.00;;
2866;SDS011;1441;48.886;8.728;2023-05-10T05:12:33;2.70;;;2.20;;
2866;SDS011;1441;48.886;8.728;2023-05-10T05:14:59;3.87;;;1.83;;
2866;SDS011;1441;48.886;8.728;2023-05-10T05:17:25;2.50;;;2.30;;
2866;SDS011;1441;48.886;8.728;2023-05-10T05:19:50;2.40;;;2.20;;
2866;SDS011;1441;48.886;8.728;2023-05-10T05:22:16;2.60;;;2.00;;
2866;SDS011;1441;48.886;8.728;2023-05-10T05:24:42;2.87;;;2.27;;
2866;SDS011;1441;48.886;8.728;2023-05-10T05:27:07;3.00;;;2.20;;
2866;SDS011;1441;48.886;8.728;2023-05-10T05:29:35;2.93;;;2.53;;
2866;SDS011;1441;48.886;8.728;2023-05-10T05:32:01;2.80;;;2.20;;
2866;SDS011;1441;48.886;8.728;2023-05-10T05:34:26;2.13;;;2.03;;
2866;SDS011;1441;48.886;8.728;2023-05-10T05:36:52;2.67;;;2.23;;
2866;SDS011;1441;48.886;8.728;2023-05-10T05:39:18;3.10;;;2.80;;
2866;SDS011;1441;48.886;8.728;2023-05-10T05:41:44;2.57;;;2.33;;
2866;SDS011;1441;48.886;8.728;2023-05-10T05:44:09;2.60;;;1.63;;
2866;SDS011;1441;48.886;8.728;2023-05-10T05:46:35;2.20;;;2.00;;
2866;SDS011;1441;48.886;8.728;2023-05-10T05:49:01;3.47;;;1.80;;
2866;SDS011;1441;48.886;8.728;2023-05-10T05:51:26;4.33;;;1.83;;
2866;SDS011;1441;48.886;8.728;2023-05-10T05:53:52;1.93;;;1.70;;
2866;SDS011;1441;48.886;8.728;2023-05-10T05:56:17;5.67;;;1.50;;
2866;SDS011;1441;48.886;8.728;2023-05-10T05:58:49;1.40;;;1.30;;
2866;SDS011;1441;48.886;8.728;2023-05-10T06:01:15;3.03;;;1.43;;
2866;SDS011;1441;48.886;8.728;2023-05-10T06:03:41;1.27;;;1.10;;
2866;SDS011;1441;48.886;8.728;2023-05-10T06:06:06;3.60;;;1.40;;
2866;SDS011;1441;48.886;8.728;2023-05-10T06:08:32;2.90;;;1.00;;
2866;SDS011;1441;48.886;8.728;2023-05-10T06:10:58;2.53;;;0.90;;
2866;SDS011;1441;48.886;8.728;2023-05-10T06:13:24;2.20;;;1.10;;
2866;SDS011;1441;48.886;8.728;2023-05-10T06:15:53;2.73;;;1.20;;
2866;SDS011;1441;48.886;8.728;2023-05-10T06:18:19;1.10;;;1.10;;
2866;SDS011;1441;48.886;8.728;2023-05-10T06:20:44;1.50;;;1.17;;
2866;SDS011;1441;48.886;8.728;2023-05-10T06:23:10;2.87;;;1.07;;
2866;SDS011;1441;48.886;8.728;2023-05-10T06:25:36;0.80;;;0.80;;
2866;SDS011;1441;48.886;8.728;2023-05-10T06:28:01;3.30;;;0.70;;
2866;SDS011;1441;48.886;8.728;2023-05-10T06:30:27;1.57;;;0.87;;
2866;SDS011;1441;48.886;8.728;2023-05-10T06:32:53;1.37;;;0.97;;
2866;SDS011;1441;48.886;8.728;2023-05-10T06:35:19;5.50;;;1.07;;
2866;SDS011;1441;48.886;8.728;2023-05-10T06:37:44;0.80;;;0.77;;
2866;SDS011;1441;48.886;8.728;2023-05-10T06:40:11;0.90;;;0.90;;
2866;SDS011;1441;48.886;8.728;2023-05-10T06:42:37;0.70;;;0.70;;
2866;SDS011;1441;48.886;8.728;2023-05-10T06:45:02;0.73;;;0.73;;
2866;SDS011;1441;48.886;8.728;2023-05-10T06:47:28;3.10;;;0.87;;
2866;SDS011;1441;48.886;8.728;2023-05-10T06:49:54;1.80;;;0.70;;
2866;SDS011;1441;48.886;8.728;2023-05-10T06:52:20;1.60;;;0.50;;
2866;SDS011;1441;48.886;8.728;2023-05-10T06:54:46;0.60;;;0.60;;
2866;SDS011;1441;48.886;8.728;2023-05-10T06:57:11;0.73;;;0.57;;
2866;SDS011;1441;48.886;8.728;2023-05-10T06:59:37;1.53;;;0.60;;
2866;SDS011;1441;48.886;8.728;2023-05-10T07:02:02;1.57;;;0.60;;
2866;SDS011;1441;48.886;8.728;2023-05-10T07:04:28;1.33;;;0.57;;
2866;SDS011;1441;48.886;8.728;2023-05-10T07:06:53;0.87;;;0.87;;
2866;SDS011;1441;48.886;8.728;2023-05-10T07:09:19;0.80;;;0.67;;
2866;SDS011;1441;48.886;8.728;2023-05-10T07:11:45;0.67;;;0.67;;
2866;SDS011;1441;48.886;8.728;2023-05-10T07:14:10;0.50;;;0.50;;
2866;SDS011;1441;48.886;8.728;2023-05-10T07:16:36;0.60;;;0.57;;
2866;SDS011;1441;48.886;8.728;2023-05-10T07:19:02;0.80;;;0.70;;
2866;SDS011;1441;48.886;8.728;2023-05-10T07:21:27;0.50;;;0.50;;
2866;SDS011;1441;48.886;8.728;2023-05-10T07:23:53;0.40;;;0.40;;
2866;SDS011;1441;48.886;8.728;2023-05-10T07:26:19;0.50;;;0.50;;
2866;SDS011;1441;48.886;8.728;2023-05-10T07:28:45;0.50;;;0.50;;
2866;SDS011;1441;48.886;8.728;2023-05-10T07:31:11;2.00;;;0.50;;
2866;SDS011;1441;48.886;8.728;2023-05-10T07:33:37;0.50;;;0.50;;
2866;SDS011;1441;48.886;8.728;2023-05-10T07:36:03;0.97;;;0.70;;
2866;SDS011;1441;48.886;8.728;2023-05-10T07:38:28;0.80;;;0.50;;
2866;SDS011;1441;48.886;8.728;2023-05-10T07:40:54;0.67;;;0.67;;
2866;SDS011;1441;48.886;8.728;2023-05-10T07:43:19;0.70;;;0.70;;
2866;SDS011;1441;48.886;8.728;2023-05-10T07:45:45;4.33;;;0.60;;
2866;SDS011;1441;48.886;8.728;2023-05-10T07:48:10;1.20;;;0.67;;
2866;SDS011;1441;48.886;8.728;2023-05-10T07:50:36;1.70;;;0.50;;
2866;SDS011;1441;48.886;8.728;2023-05-10T07:53:01;1.40;;;0.40;;
2866;SDS011;1441;48.886;8.728;2023-05-10T07:55:27;3.47;;;0.60;;
2866;SDS011;1441;48.886;8.728;2023-05-10T07:57:53;0.50;;;0.50;;
2866;SDS011;1441;48.886;8.728;2023-05-10T08:00:19;0.50;;;0.40;;
2866;SDS011;1441;48.886;8.728;2023-05-10T08:02:45;2.30;;;0.50;;
2866;SDS011;1441;48.886;8.728;2023-05-10T08:05:11;1.07;;;0.50;;
2866;SDS011;1441;48.886;8.728;2023-05-10T08:07:37;0.40;;;0.40;;
2866;SDS011;1441;48.886;8.728;2023-05-10T08:10:03;1.13;;;0.40;;
2866;SDS011;1441;48.886;8.728;2023-05-10T08:12:29;0.57;;;0.50;;
2866;SDS011;1441;48.886;8.728;2023-05-10T08:14:55;0.63;;;0.50;;
2866;SDS011;1441;48.886;8.728;2023-05-10T08:17:20;0.80;;;0.40;;
2866;SDS011;1441;48.886;8.728;2023-05-10T08:19:46;0.50;;;0.50;;
2866;SDS011;1441;48.886;8.728;2023-05-10T08:22:12;0.33;;;0.33;;
2866;SDS011;1441;48.886;8.728;2023-05-10T08:24:37;2.47;;;0.50;;
2866;SDS011;1441;48.886;8.728;2023-05-10T08:27:07;0.40;;;0.40;;
2866;SDS011;1441;48.886;8.728;2023-05-10T08:29:33;0.43;;;0.43;;
2866;SDS011;1441;48.886;8.728;2023-05-10T08:31:59;0.60;;;0.47;;
2866;SDS011;1441;48.886;8.728;2023-05-10T08:34:25;0.47;;;0.47;;
2866;SDS011;1441;48.886;8.728;2023-05-10T08:36:51;1.70;;;0.57;;
2866;SDS011;1441;48.886;8.728;2023-05-10T08:39:17;1.17;;;0.50;;
2866;SDS011;1441;48.886;8.728;2023-05-10T08:41:43;0.60;;;0.60;;
2866;SDS011;1441;48.886;8.728;2023-05-10T08:44:09;0.57;;;0.50;;
2866;SDS011;1441;48.886;8.728;2023-05-10T08:46:36;1.90;;;0.53;;
2866;SDS011;1441;48.886;8.728;2023-05-10T08:49:04;0.50;;;0.50;;
2866;SDS011;1441;48.886;8.728;2023-05-10T08:51:36;2.00;;;0.50;;
2866;SDS011;1441;48.886;8.728;2023-05-10T08:54:05;1.60;;;0.50;;
2866;SDS011;1441;48.886;8.728;2023-05-10T08:56:31;0.50;;;0.50;;
2866;SDS011;1441;48.886;8.728;2023-05-10T08:58:57;0.90;;;0.50;;
2866;SDS011;1441;48.886;8.728;2023-05-10T09:01:22;0.63;;;0.43;;
2866;SDS011;1441;48.886;8.728;2023-05-10T09:03:49;0.50;;;0.50;;
2866;SDS011;1441;48.886;8.728;2023-05-10T09:06:15;0.70;;;0.70;;
2866;SDS011;1441;48.886;8.728;2023-05-10T09:08:41;3.27;;;0.70;;
2866;SDS011;1441;48.886;8.728;2023-05-10T09:11:08;0.80;;;0.70;;
2866;SDS011;1441;48.886;8.728;2023-05-10T09:13:35;0.53;;;0.53;;
2866;SDS011;1441;48.886;8.728;2023-05-10T09:16:02;0.50;;;0.50;;
2866;SDS011;1441;48.886;8.728;2023-05-10T09:18:28;1.90;;;0.60;;
2866;SDS011;1441;48.886;8.728;2023-05-10T09:20:54;0.40;;;0.40;;
2866;SDS011;1441;48.886;8.728;2023-05-10T09:23:20;6.23;;;0.70;;
2866;SDS011;1441;48.886;8.728;2023-05-10T09:25:45;3.90;;;0.47;;
2866;SDS011;1441;48.886;8.728;2023-05-10T09:28:11;0.80;;;0.50;;
2866;SDS011;1441;48.886;8.728;2023-05-10T09:30:37;0.60;;;0.50;;
2866;SDS011;1441;48.886;8.728;2023-05-10T09:33:04;0.40;;;0.40;;
2866;SDS011;1441;48.886;8.728;2023-05-10T09:35:30;6.53;;;0.50;;
2866;SDS011;1441;48.886;8.728;2023-05-10T09:38:02;1.03;;;0.60;;
2866;SDS011;1441;48.886;8.728;2023-05-10T09:40:29;0.67;;;0.50;;
2866;SDS011;1441;48.886;8.728;2023-05-10T09:45:25;1.80;;;0.50;;
2866;SDS011;1441;48.886;8.728;2023-05-10T09:47:55;1.00;;;0.50;;
2866;SDS011;1441;48.886;8.728;2023-05-10T09:50:21;0.50;;;0.50;;
2866;SDS011;1441;48.886;8.728;2023-05-10T09:52:57;0.60;;;0.60;;
2866;SDS011;1441;48.886;8.728;2023-05-10T09:55:46;1.00;;;0.60;;
2866;SDS011;1441;48.886;8.728;2023-05-10T09:58:12;0.67;;;0.53;;
2866;SDS011;1441;48.886;8.728;2023-05-10T10:00:42;0.70;;;0.70;;
2866;SDS011;1441;48.886;8.728;2023-05-10T10:03:15;1.30;;;0.80;;
2866;SDS011;1441;48.886;8.728;2023-05-10T10:05:44;0.40;;;0.40;;
2866;SDS011;1441;48.886;8.728;2023-05-10T10:08:12;1.47;;;0.57;;
2866;SDS011;1441;48.886;8.728;2023-05-10T10:10:38;1.90;;;0.60;;
2866;SDS011;1441;48.886;8.728;2023-05-10T10:13:05;1.00;;;0.50;;
2866;SDS011;1441;48.886;8.728;2023-05-10T10:15:31;0.70;;;0.53;;
2866;SDS011;1441;48.886;8.728;2023-05-10T10:17:58;0.60;;;0.60;;
2866;SDS011;1441;48.886;8.728;2023-05-10T10:20:24;2.40;;;0.70;;
2866;SDS011;1441;48.886;8.728;2023-05-10T10:22:51;0.53;;;0.53;;
2866;SDS011;1441;48.886;8.728;2023-05-10T10:25:17;4.40;;;0.67;;
2866;SDS011;1441;48.886;8.728;2023-05-10T10:32:48;2.20;;;0.70;;
2866;SDS011;1441;48.886;8.728;2023-05-10T10:35:29;0.93;;;0.80;;
2866;SDS011;1441;48.886;8.728;2023-05-10T10:37:55;4.53;;;0.80;;
2866;SDS011;1441;48.886;8.728;2023-05-10T10:40:25;1.33;;;0.60;;
2866;SDS011;1441;48.886;8.728;2023-05-10T10:42:51;0.97;;;0.80;;
2866;SDS011;1441;48.886;8.728;2023-05-10T10:45:17;1.53;;;0.50;;
2866;SDS011;1441;48.886;8.728;2023-05-10T10:47:42;4.13;;;0.87;;
2866;SDS011;1441;48.886;8.728;2023-05-10T10:50:10;2.77;;;0.90;;
2866;SDS011;1441;48.886;8.728;2023-05-10T10:52:38;3.33;;;0.80;;
2866;SDS011;1441;48.886;8.728;2023-05-10T10:55:08;1.73;;;1.07;;
2866;SDS011;1441;48.886;8.728;2023-05-10T11:13:57;0.93;;;0.93;;
2866;SDS011;1441;48.886;8.728;2023-05-10T11:18:52;1.43;;;0.70;;
2866;SDS011;1441;48.886;8.728;2023-05-10T11:21:21;4.33;;;0.70;;
2866;SDS011;1441;48.886;8.728;2023-05-10T11:26:14;0.57;;;0.57;;
2866;SDS011;1441;48.886;8.728;2023-05-10T11:28:46;2.50;;;0.60;;
2866;SDS011;1441;48.886;8.728;2023-05-10T11:31:13;0.73;;;0.50;;
2866;SDS011;1441;48.886;8.728;2023-05-10T11:33:47;0.70;;;0.70;;
2866;SDS011;1441;48.886;8.728;2023-05-10T11:36:20;0.93;;;0.63;;
2866;SDS011;1441;48.886;8.728;2023-05-10T11:38:47;1.80;;;0.80;;
2866;SDS011;1441;48.886;8.728;2023-05-10T11:41:13;1.93;;;0.60;;
2866;SDS011;1441;48.886;8.728;2023-05-10T11:43:40;0.50;;;0.50;;
2866;SDS011;1441;48.886;8.728;2023-05-10T11:46:07;1.67;;;0.70;;
2866;SDS011;1441;48.886;8.728;2023-05-10T11:48:35;1.80;;;0.70;;
2866;SDS011;1441;48.886;8.728;2023-05-10T11:51:01;0.70;;;0.70;;
2866;SDS011;1441;48.886;8.728;2023-05-10T11:53:28;1.33;;;0.60;;
2866;SDS011;1441;48.886;8.728;2023-05-10T11:56:01;1.30;;;0.70;;
2866;SDS011;1441;48.886;8.728;2023-05-10T11:58:28;2.83;;;0.70;;
2866;SDS011;1441;48.886;8.728;2023-05-10T12:00:53;0.70;;;0.50;;
2866;SDS011;1441;48.886;8.728;2023-05-10T12:03:19;2.23;;;0.50;;
2866;SDS011;1441;48.886;8.728;2023-05-10T12:05:45;2.20;;;0.60;;
2866;SDS011;1441;48.886;8.728;2023-05-10T12:08:14;3.07;;;0.60;;
2866;SDS011;1441;48.886;8.728;2023-05-10T12:10:40;3.23;;;0.70;;
2866;SDS011;1441;48.886;8.728;2023-05-10T12:13:10;1.57;;;0.53;;
2866;SDS011;1441;48.886;8.728;2023-05-10T12:15:40;0.60;;;0.40;;
2866;SDS011;1441;48.886;8.728;2023-05-10T12:18:08;0.63;;;0.60;;
2866;SDS011;1441;48.886;8.728;2023-05-10T12:20:35;1.27;;;0.60;;
2866;SDS011;1441;48.886;8.728;2023-05-10T12:23:01;0.87;;;0.50;;
2866;SDS011;1441;48.886;8.728;2023-05-10T12:25:32;0.80;;;0.80;;
2866;SDS011;1441;48.886;8.728;2023-05-10T12:27:59;0.83;;;0.70;;
2866;SDS011;1441;48.886;8.728;2023-05-10T12:30:28;0.70;;;0.70;;
2866;SDS011;1441;48.886;8.728;2023-05-10T12:33:09;2.27;;;0.70;;
2866;SDS011;1441;48.886;8.728;2023-05-10T12:35:46;4.90;;;0.80;;
2866;SDS011;1441;48.886;8.728;2023-05-10T12:38:49;0.57;;;0.57;;
2866;SDS011;1441;48.886;8.728;2023-05-10T12:41:15;2.37;;;1.23;;
2866;SDS011;1441;48.886;8.728;2023-05-10T12:43:42;0.60;;;0.60;;
2866;SDS011;1441;48.886;8.728;2023-05-10T12:46:11;2.00;;;0.80;;
2866;SDS011;1441;48.886;8.728;2023-05-10T12:48:39;2.57;;;0.67;;
2866;SDS011;1441;48.886;8.728;2023-05-10T12:51:05;0.87;;;0.50;;
2866;SDS011;1441;48.886;8.728;2023-05-10T12:53:34;1.23;;;0.60;;
2866;SDS011;1441;48.886;8.728;2023-05-10T12:56:00;0.50;;;0.50;;
2866;SDS011;1441;48.886;8.728;2023-05-10T12:58:25;0.90;;;0.60;;
2866;SDS011;1441;48.886;8.728;2023-05-10T13:00:51;3.23;;;0.80;;
2866;SDS011;1441;48.886;8.728;2023-05-10T13:03:17;1.50;;;0.60;;
2866;SDS011;1441;48.886;8.728;2023-05-10T13:05:43;1.33;;;0.67;;
2866;SDS011;1441;48.886;8.728;2023-05-10T13:08:08;1.13;;;0.70;;
2866;SDS011;1441;48.886;8.728;2023-05-10T13:10:34;1.80;;;0.60;;
2866;SDS011;1441;48.886;8.728;2023-05-10T13:13:00;0.73;;;0.70;;
2866;SDS011;1441;48.886;8.728;2023-05-10T13:15:26;0.70;;;0.53;;
2866;SDS011;1441;48.886;8.728;2023-05-10T13:17:52;0.60;;;0.50;;
2866;SDS011;1441;48.886;8.728;2023-05-10T13:20:18;1.23;;;0.60;;
2866;SDS011;1441;48.886;8.728;2023-05-10T13:22:44;1.40;;;0.70;;
2866;SDS011;1441;48.886;8.728;2023-05-10T13:25:10;2.90;;;0.93;;
2866;SDS011;1441;48.886;8.728;2023-05-10T13:27:37;0.80;;;0.60;;
2866;SDS011;1441;48.886;8.728;2023-05-10T13:30:04;1.73;;;0.67;;
2866;SDS011;1441;48.886;8.728;2023-05-10T13:32:30;5.50;;;0.60;;
2866;SDS011;1441;48.886;8.728;2023-05-10T13:34:56;0.90;;;0.60;;
2866;SDS011;1441;48.886;8.728;2023-05-10T13:37:21;0.50;;;0.50;;
2866;SDS011;1441;48.886;8.728;2023-05-10T13:39:47;1.90;;;0.70;;
2866;SDS011;1441;48.886;8.728;2023-05-10T13:42:13;1.27;;;0.50;;
2866;SDS011;1441;48.886;8.728;2023-05-10T13:44:39;0.50;;;0.50;;
2866;SDS011;1441;48.886;8.728;2023-05-10T13:47:05;1.37;;;0.50;;
2866;SDS011;1441;48.886;8.728;2023-05-10T13:49:31;1.23;;;0.70;;
2866;SDS011;1441;48.886;8.728;2023-05-10T13:51:56;1.53;;;0.50;;
2866;SDS011;1441;48.886;8.728;2023-05-10T13:54:23;1.10;;;0.63;;
2866;SDS011;1441;48.886;8.728;2023-05-10T13:56:48;0.60;;;0.47;;
2866;SDS011;1441;48.886;8.728;2023-05-10T13:59:14;1.23;;;0.57;;
2866;SDS011;1441;48.886;8.728;2023-05-10T14:01:40;2.20;;;0.50;;
2866;SDS011;1441;48.886;8.728;2023-05-10T14:04:07;2.83;;;0.50;;
2866;SDS011;1441;48.886;8.728;2023-05-10T14:06:35;0.50;;;0.50;;
2866;SDS011;1441;48.886;8.728;2023-05-10T14:09:01;0.40;;;0.40;;
2866;SDS011;1441;48.886;8.728;2023-05-10T14:11:27;0.90;;;0.40;;
2866;SDS011;1441;48.886;8.728;2023-05-10T14:13:53;1.43;;;0.60;;
2866;SDS011;1441;48.886;8.728;2023-05-10T14:16:18;1.43;;;0.40;;
2866;SDS011;1441;48.886;8.728;2023-05-10T14:18:45;1.70;;;0.50;;
2866;SDS011;1441;48.886;8.728;2023-05-10T14:21:11;1.23;;;0.50;;
2866;SDS011;1441;48.886;8.728;2023-05-10T14:23:37;0.50;;;0.50;;
2866;SDS011;1441;48.886;8.728;2023-05-10T14:26:02;5.17;;;0.63;;
2866;SDS011;1441;48.886;8.728;2023-05-10T14:28:28;1.60;;;0.60;;
2866;SDS011;1441;48.886;8.728;2023-05-10T14:30:54;4.53;;;0.50;;
2866;SDS011;1441;48.886;8.728;2023-05-10T14:33:19;0.77;;;0.57;;
2866;SDS011;1441;48.886;8.728;2023-05-10T14:35:45;0.90;;;0.50;;
2866;SDS011;1441;48.886;8.728;2023-05-10T14:38:11;1.90;;;0.70;;
2866;SDS011;1441;48.886;8.728;2023-05-10T14:40:37;1.03;;;0.50;;
2866;SDS011;1441;48.886;8.728;2023-05-10T14:43:03;1.00;;;0.47;;
2866;SDS011;1441;48.886;8.728;2023-05-10T14:45:28;0.77;;;0.50;;
2866;SDS011;1441;48.886;8.728;2023-05-10T14:47:54;0.87;;;0.50;;
2866;SDS011;1441;48.886;8.728;2023-05-10T14:50:20;0.60;;;0.40;;
2866;SDS011;1441;48.886;8.728;2023-05-10T14:52:45;0.80;;;0.50;;
2866;SDS011;1441;48.886;8.728;2023-05-10T14:55:11;2.40;;;0.50;;
2866;SDS011;1441;48.886;8.728;2023-05-10T14:57:37;0.43;;;0.43;;
2866;SDS011;1441;48.886;8.728;2023-05-10T15:00:03;4.83;;;0.50;;
2866;SDS011;1441;48.886;8.728;2023-05-10T15:02:30;1.07;;;0.50;;
2866;SDS011;1441;48.886;8.728;2023-05-10T15:04:56;0.90;;;0.40;;
2866;SDS011;1441;48.886;8.728;2023-05-10T15:07:22;23.43;;;1.20;;
2866;SDS011;1441;48.886;8.728;2023-05-10T15:09:48;4.57;;;0.60;;
2866;SDS011;1441;48.886;8.728;2023-05-10T15:12:15;6.23;;;0.67;;
2866;SDS011;1441;48.886;8.728;2023-05-10T15:14:40;17.93;;;1.23;;
2866;SDS011;1441;48.886;8.728;2023-05-10T15:17:06;1.87;;;0.50;;
2866;SDS011;1441;48.886;8.728;2023-05-10T15:19:32;4.67;;;0.43;;
2866;SDS011;1441;48.886;8.728;2023-05-10T15:21:58;45.07;;;2.00;;
2866;SDS011;1441;48.886;8.728;2023-05-10T15:24:24;6.53;;;0.87;;
2866;SDS011;1441;48.886;8.728;2023-05-10T15:26:50;3.13;;;0.60;;
2866;SDS011;1441;48.886;8.728;2023-05-10T15:29:15;0.60;;;0.40;;
2866;SDS011;1441;48.886;8.728;2023-05-10T15:31:48;3.27;;;0.70;;
2866;SDS011;1441;48.886;8.728;2023-05-10T15:34:14;1.73;;;0.50;;
2866;SDS011;1441;48.886;8.728;2023-05-10T15:36:40;2.00;;;0.63;;
2866;SDS011;1441;48.886;8.728;2023-05-10T15:39:06;6.67;;;0.60;;
2866;SDS011;1441;48.886;8.728;2023-05-10T15:41:32;0.93;;;0.57;;
2866;SDS011;1441;48.886;8.728;2023-05-10T15:43:58;0.90;;;0.50;;
2866;SDS011;1441;48.886;8.728;2023-05-10T15:46:27;2.83;;;0.80;;
2866;SDS011;1441;48.886;8.728;2023-05-10T15:48:53;0.70;;;0.70;;
2866;SDS011;1441;48.886;8.728;2023-05-10T15:51:19;0.47;;;0.40;;
2866;SDS011;1441;48.886;8.728;2023-05-10T15:53:45;2.00;;;0.40;;
2866;SDS011;1441;48.886;8.728;2023-05-10T15:56:10;1.00;;;0.60;;
2866;SDS011;1441;48.886;8.728;2023-05-10T15:58:39;1.03;;;0.43;;
2866;SDS011;1441;48.886;8.728;2023-05-10T16:01:05;3.27;;;0.50;;
2866;SDS011;1441;48.886;8.728;2023-05-10T16:03:32;0.63;;;0.50;;